Yemassee, SC

8:05 PM EST on March 05, 2015 (GMT -0500)
Beaufort Marine Corps Air Station | Change Station
CLOSE
Current Station
Airport
Location: Beaufort MCAS,
Elevation: 39 ft
Nearby Weather Stations
Active Advisory: Freeze Watch

Elev 39 ft 32.48 °N, 80.72 °W | Updated 9 minutes ago

Mostly Cloudy
Mostly Cloudy
64 °F
Feels Like 64 °F
N
8
Wind Variable Wind from West

Today
High -- | Low -- °F
--% Chance of Precip.
Yesterday
High -- | Low -- °F
Precip. -- in
6:46 AM 6:23 PM
Full, 100% visible
Pressure 30.07 in
Visibility 8.0 miles
Clouds Overcast 1000 ft
Dew Point 62 °F
Humidity 93%
Rainfall 0.22 in
Snow Depth Not available.
UV 0 out of 12
Pollen 9.60 out of 12
Air Quality Not available.
Flu Activity Not available.
METAR KNBC 060056Z 26007KT 8SM -RA OVC010 18/17 A3007 RMK AO2 SLP183 P0010 T01780167 $

More Conditions Fewer Conditions

Pressure 30.07 in
Visibility 8.0 miles
Clouds Overcast 1000 ft
Dew Point 62 °F
Humidity 93%
Rainfall 0.22 in
Snow Depth Not available.
UV 0 out of 12
Pollen 9.60 out of 12
Air Quality Not available.
Flu Activity Not available.
METAR KNBC 060056Z 26007KT 8SM -RA OVC010 18/17 A3007 RMK AO2 SLP183 P0010 T01780167 $

More Conditions Fewer Conditions

10-Day Weather Forecast

Almanac

Astronomy

Mar. 05, 2015 Rise Set
Actual Time
Civil Twilight
Nautical Twilight
Astronomical Twilight
Moon
Length of Visible Light
Length of Day
Tomorrow will be .
, % of the Moon is Illuminated

Today's Extremes

State Highs State Lows

Community

WunderPhotos

Upload Photos

1,803,092 photos uploaded!

WunderBlogs® & News

Nearby

Air Quality

  Air Quality AQ Index Pollutant
Not available.

Snow Depth

Station Depth Elevation

Earthquake Activity

City Distance Mag. Time & Date
Minimum magnitude displayed is 2.5.

Coastal Water Temperatures

Place Temperature

Nearby Weather Stations

Freeze Watch
Statement as of 3:56 PM EST on March 05, 2015

... Freeze watch in effect from Friday evening through Saturday
morning...

The National Weather Service in Charleston has issued a freeze
watch... which is in effect from Friday evening through Saturday
morning.

* Locations... most of southeast South Carolina and southeast
Georgia with the exception of coastal Georgia.

* Temperatures... 28 to 32 degrees.

* Timing... dropping below freezing late Friday evening before
rising above freezing between 8 and 9 am Saturday. Freeze
duration of 5 to 8 hours possible.

* Impacts... freezing temperatures could kill sensitive
vegetation and damage unprotected outdoor plumbing.

Precautionary/preparedness actions...

Be prepared for the potential of freezing temperatures which
could harm sensitive outdoor vegetation and damage unprotected
outdoor plumbing.



Jrl